Time;durP1;ratioP1;P1;durP2;ratioP2;P2;SDS_P1;SDS_P2;PMS_P1;PMS_P2;Temp;Humidity;BMP_temperature;BMP_pressure;BME280_temperature;BME280_humidity;BME280_pressure;Samples;Min_cycle;Max_cycle;Signal;HPM_P1;HPM_P2
2022/03/18 00:00:57;;;;;;;26.67;12.77;;;;;;;;;;5029466;28;20497;-78
2022/03/18 00:03:23;;;;;;;32.70;12.70;;;;;;;;;;5027385;28;20108;-74
2022/03/18 00:05:49;;;;;;;26.60;11.60;;;;;;;;;;5026480;28;20087;-76
2022/03/18 00:08:15;;;;;;;25.73;12.15;;;;;;;;;;5030458;28;20060;-76
2022/03/18 00:10:41;;;;;;;25.63;11.45;;;;;;;;;;5029130;28;20029;-76
2022/03/18 00:13:07;;;;;;;25.95;10.90;;;;;;;;;;5029361;28;20096;-77
2022/03/18 00:15:33;;;;;;;26.98;11.38;;;;;;;;;;5029353;28;20041;-77
2022/03/18 00:18:00;;;;;;;30.23;11.82;;;;;;;;;;5029542;28;20491;-77
2022/03/18 00:20:26;;;;;;;29.08;12.95;;;;;;;;;;5027082;28;20046;-76
2022/03/18 00:22:52;;;;;;;27.75;12.85;;;;;;;;;;5029581;28;20041;-75
2022/03/18 00:25:19;;;;;;;26.02;12.10;;;;;;;;;;5027502;28;20441;-76
2022/03/18 00:27:46;;;;;;;31.90;13.18;;;;;;;;;;5029011;28;20116;-76
2022/03/18 00:30:13;;;;;;;34.83;13.20;;;;;;;;;;5027389;28;20057;-76
2022/03/18 00:32:40;;;;;;;31.48;12.82;;;;;;;;;;5028320;28;20040;-76
2022/03/18 00:35:07;;;;;;;33.10;12.80;;;;;;;;;;5029073;28;20064;-77
2022/03/18 00:37:34;;;;;;;36.30;13.60;;;;;;;;;;5029697;28;20478;-76
2022/03/18 00:40:00;;;;;;;30.23;13.05;;;;;;;;;;5027473;28;20040;-75
2022/03/18 00:42:26;;;;;;;34.83;12.95;;;;;;;;;;5029275;28;20037;-78
2022/03/18 00:44:52;;;;;;;33.47;14.50;;;;;;;;;;5028580;28;20150;-77
2022/03/18 00:52:48;;;;;;;40.03;14.43;;;;;;;;;;5028168;28;20072;-77
2022/03/18 00:55:14;;;;;;;30.92;14.15;;;;;;;;;;5028526;28;20049;-75
2022/03/18 00:57:40;;;;;;;30.02;13.43;;;;;;;;;;5026984;28;20911;-76
2022/03/18 01:00:07;;;;;;;35.60;14.38;;;;;;;;;;5028696;28;20113;-76
2022/03/18 01:02:33;;;;;;;30.30;14.20;;;;;;;;;;5028792;28;20102;-75
2022/03/18 01:04:59;;;;;;;35.88;14.38;;;;;;;;;;5027734;28;20159;-77
2022/03/18 01:07:25;;;;;;;26.58;12.77;;;;;;;;;;5029729;28;20124;-77
2022/03/18 01:09:51;;;;;;;29.33;14.35;;;;;;;;;;5028671;28;20032;-76
2022/03/18 01:12:17;;;;;;;28.23;12.80;;;;;;;;;;5028409;28;20041;-77
2022/03/18 01:14:43;;;;;;;36.75;14.10;;;;;;;;;;5028263;28;20029;-76
2022/03/18 01:17:09;;;;;;;30.30;13.85;;;;;;;;;;5028411;28;20052;-77
2022/03/18 01:19:35;;;;;;;33.03;12.27;;;;;;;;;;5027997;28;20427;-77
2022/03/18 01:22:01;;;;;;;28.55;14.32;;;;;;;;;;5028643;28;20174;-77
2022/03/18 01:24:29;;;;;;;29.90;13.98;;;;;;;;;;5027054;28;20041;-76
2022/03/18 01:26:55;;;;;;;29.27;14.43;;;;;;;;;;5028533;28;20424;-76
2022/03/18 01:29:21;;;;;;;28.95;13.10;;;;;;;;;;5026763;28;20099;-76
2022/03/18 01:31:48;;;;;;;36.72;13.85;;;;;;;;;;5027513;28;20061;-77
2022/03/18 01:34:14;;;;;;;41.88;14.98;;;;;;;;;;5026277;28;20117;-76
2022/03/18 01:36:40;;;;;;;30.48;13.60;;;;;;;;;;5027376;28;20094;-76
2022/03/18 01:39:06;;;;;;;29.75;13.05;;;;;;;;;;5027934;28;20029;-76
2022/03/18 01:41:33;;;;;;;35.72;15.18;;;;;;;;;;5009373;28;20041;-75
2022/03/18 01:43:59;;;;;;;31.73;14.75;;;;;;;;;;5024633;28;20896;-76
2022/03/18 01:46:25;;;;;;;34.38;15.25;;;;;;;;;;5028164;28;20391;-76
2022/03/18 01:48:52;;;;;;;35.45;15.35;;;;;;;;;;5027277;28;20120;-76
2022/03/18 01:51:19;;;;;;;34.80;15.48;;;;;;;;;;5010375;28;20116;-75
2022/03/18 01:54:43;;;;;;;36.28;15.27;;;;;;;;;;5010029;28;20040;-76
2022/03/18 01:56:32;;;;;;;41.33;16.35;;;;;;;;;;5028161;28;20130;-76
2022/03/18 01:58:58;;;;;;;32.15;15.18;;;;;;;;;;5025464;28;20031;-76
2022/03/18 02:01:24;;;;;;;31.85;16.10;;;;;;;;;;5027899;28;20331;-75
2022/03/18 02:03:50;;;;;;;33.45;16.60;;;;;;;;;;5027987;28;20112;-76
2022/03/18 02:06:16;;;;;;;34.80;16.70;;;;;;;;;;5027010;28;20483;-76
2022/03/18 02:08:45;;;;;;;29.92;16.00;;;;;;;;;;5027790;28;20041;-77
2022/03/18 02:11:11;;;;;;;37.58;17.73;;;;;;;;;;5025878;28;20033;-77
2022/03/18 02:13:37;;;;;;;48.25;17.52;;;;;;;;;;5027867;28;20042;-75
2022/03/18 02:16:03;;;;;;;29.42;16.98;;;;;;;;;;5028007;28;20030;-78
2022/03/18 02:18:29;;;;;;;31.85;17.27;;;;;;;;;;5027443;28;20037;-76
2022/03/18 02:20:55;;;;;;;36.35;17.63;;;;;;;;;;5026541;28;20057;-75
2022/03/18 02:23:21;;;;;;;41.65;17.83;;;;;;;;;;5027595;28;20033;-76
2022/03/18 02:25:48;;;;;;;46.20;19.60;;;;;;;;;;5026630;28;20037;-77
2022/03/18 02:28:14;;;;;;;40.13;19.13;;;;;;;;;;5027366;28;20029;-77
2022/03/18 02:30:40;;;;;;;42.17;18.67;;;;;;;;;;5031943;28;20516;-77
2022/03/18 02:33:06;;;;;;;35.72;18.38;;;;;;;;;;5031778;28;20037;-76
2022/03/18 02:35:32;;;;;;;38.25;17.73;;;;;;;;;;5031536;28;20022;-77
2022/03/18 02:37:59;;;;;;;39.58;18.05;;;;;;;;;;5031726;28;20037;-77
2022/03/18 02:40:29;;;;;;;36.95;18.83;;;;;;;;;;5032268;28;20032;-76
2022/03/18 02:42:58;;;;;;;39.80;17.38;;;;;;;;;;5031173;28;20040;-77
2022/03/18 02:45:24;;;;;;;37.50;17.27;;;;;;;;;;5031692;28;20077;-78
2022/03/18 02:47:50;;;;;;;37.13;17.60;;;;;;;;;;5030414;28;20561;-77
2022/03/18 02:50:16;;;;;;;36.95;17.67;;;;;;;;;;5031370;28;20065;-77
2022/03/18 02:52:42;;;;;;;37.75;17.27;;;;;;;;;;5031552;28;20021;-76
2022/03/18 02:55:09;;;;;;;38.50;16.60;;;;;;;;;;5029865;28;20053;-76
2022/03/18 02:57:36;;;;;;;34.78;16.65;;;;;;;;;;5030332;28;20136;-76
2022/03/18 03:00:02;;;;;;;38.97;17.83;;;;;;;;;;5030331;28;20041;-77
2022/03/18 03:02:28;;;;;;;39.38;18.65;;;;;;;;;;5013023;28;20491;-78
2022/03/18 03:10:23;;;;;;;44.38;19.38;;;;;;;;;;5030453;28;20190;-77
2022/03/18 03:12:50;;;;;;;44.25;19.30;;;;;;;;;;5030475;28;20170;-76
2022/03/18 03:15:16;;;;;;;41.58;18.50;;;;;;;;;;5030987;28;20018;-76
2022/03/18 03:17:42;;;;;;;44.63;19.08;;;;;;;;;;5029783;28;20033;-78
2022/03/18 03:20:08;;;;;;;37.42;17.92;;;;;;;;;;5029653;28;20530;-76
2022/03/18 03:22:34;;;;;;;35.90;18.63;;;;;;;;;;5029863;28;20038;-76
2022/03/18 03:25:00;;;;;;;40.65;18.92;;;;;;;;;;5030222;28;20045;-76
2022/03/18 03:27:29;;;;;;;40.40;19.27;;;;;;;;;;5030680;28;20033;-76
2022/03/18 03:29:58;;;;;;;40.10;19.23;;;;;;;;;;5030188;28;20045;-76
2022/03/18 03:32:24;;;;;;;43.35;18.67;;;;;;;;;;5030284;28;20028;-76
2022/03/18 03:34:50;;;;;;;44.95;19.00;;;;;;;;;;5012613;28;20029;-77
2022/03/18 03:37:16;;;;;;;41.22;18.38;;;;;;;;;;5029926;28;20029;-76
2022/03/18 03:39:42;;;;;;;44.35;18.45;;;;;;;;;;5028936;28;20033;-77
2022/03/18 03:42:08;;;;;;;47.45;19.05;;;;;;;;;;5030609;28;20108;-76
2022/03/18 03:44:34;;;;;;;45.50;19.95;;;;;;;;;;5030284;28;20072;-76
2022/03/18 03:47:00;;;;;;;39.20;18.98;;;;;;;;;;5030782;28;20072;-76
2022/03/18 03:49:26;;;;;;;48.72;18.52;;;;;;;;;;5028784;28;20024;-77
2022/03/18 03:51:52;;;;;;;38.78;18.05;;;;;;;;;;5030303;28;20109;-77
2022/03/18 03:54:18;;;;;;;39.80;18.67;;;;;;;;;;5029094;28;20481;-75
2022/03/18 03:56:44;;;;;;;49.83;18.02;;;;;;;;;;5030414;28;20048;-75
2022/03/18 03:59:10;;;;;;;40.03;17.63;;;;;;;;;;5028762;28;20124;-77
2022/03/18 04:01:36;;;;;;;42.80;17.75;;;;;;;;;;5028259;28;20101;-77
2022/03/18 04:04:04;;;;;;;50.22;18.48;;;;;;;;;;5030162;28;20558;-77
2022/03/18 04:06:30;;;;;;;47.80;19.38;;;;;;;;;;5028364;28;20498;-77
2022/03/18 04:08:56;;;;;;;44.03;19.10;;;;;;;;;;5028185;28;20049;-77
2022/03/18 04:11:22;;;;;;;51.42;21.13;;;;;;;;;;5027229;28;20075;-76
2022/03/18 04:13:48;;;;;;;50.33;19.98;;;;;;;;;;5029915;28;20112;-77
2022/03/18 04:16:15;;;;;;;51.13;19.58;;;;;;;;;;5030223;28;20080;-77
2022/03/18 04:18:42;;;;;;;57.70;21.80;;;;;;;;;;5028687;28;20061;-77
2022/03/18 04:21:08;;;;;;;54.80;21.60;;;;;;;;;;5026430;28;20053;-76
2022/03/18 04:23:34;;;;;;;48.45;21.60;;;;;;;;;;5011444;28;20443;-76
2022/03/18 04:26:00;;;;;;;62.03;21.92;;;;;;;;;;5029672;28;20104;-77
2022/03/18 04:28:26;;;;;;;55.67;21.83;;;;;;;;;;5029790;28;20139;-76
2022/03/18 04:30:52;;;;;;;53.08;20.58;;;;;;;;;;5028435;28;20108;-77
2022/03/18 04:33:18;;;;;;;40.80;18.73;;;;;;;;;;5029827;28;20103;-76
2022/03/18 04:35:44;;;;;;;52.63;18.55;;;;;;;;;;5028638;28;20041;-77
2022/03/18 04:38:10;;;;;;;45.90;21.23;;;;;;;;;;5028559;28;20029;-77
2022/03/18 04:40:36;;;;;;;40.85;19.42;;;;;;;;;;5028097;28;20029;-77
2022/03/18 04:43:04;;;;;;;44.03;19.80;;;;;;;;;;5028135;28;20025;-78
2022/03/18 04:45:30;;;;;;;41.05;19.88;;;;;;;;;;5029473;28;20036;-77
2022/03/18 04:47:57;;;;;;;40.83;20.52;;;;;;;;;;5028592;28;20048;-77
2022/03/18 04:50:23;;;;;;;47.03;18.92;;;;;;;;;;5029630;28;20025;-77
2022/03/18 04:52:49;;;;;;;57.22;21.40;;;;;;;;;;5028890;28;20112;-77
2022/03/18 04:55:15;;;;;;;63.47;28.35;;;;;;;;;;5027159;28;20133;-78
2022/03/18 04:57:41;;;;;;;54.42;24.55;;;;;;;;;;5029492;28;20025;-77
2022/03/18 05:00:07;;;;;;;52.55;21.75;;;;;;;;;;5027687;28;20071;-77
2022/03/18 05:02:36;;;;;;;48.33;19.70;;;;;;;;;;5028939;28;20031;-77
2022/03/18 05:05:02;;;;;;;40.38;19.63;;;;;;;;;;5028967;28;20087;-77
2022/03/18 05:07:28;;;;;;;43.75;20.02;;;;;;;;;;5027964;28;20037;-76
2022/03/18 05:09:55;;;;;;;43.83;19.02;;;;;;;;;;5027870;28;20116;-76
2022/03/18 05:12:21;;;;;;;41.85;18.75;;;;;;;;;;5029821;28;20032;-77
2022/03/18 05:14:47;;;;;;;51.30;19.10;;;;;;;;;;5028941;28;20041;-77
2022/03/18 05:17:13;;;;;;;48.47;21.17;;;;;;;;;;5028815;28;20040;-77
2022/03/18 05:19:40;;;;;;;49.33;18.73;;;;;;;;;;5028887;28;20029;-77
2022/03/18 05:22:06;;;;;;;42.38;19.85;;;;;;;;;;5028607;28;20049;-77
2022/03/18 05:24:33;;;;;;;49.10;20.98;;;;;;;;;;5026890;28;20432;-77
2022/03/18 05:26:59;;;;;;;47.85;20.77;;;;;;;;;;5027718;28;20029;-76
2022/03/18 05:29:26;;;;;;;49.80;20.55;;;;;;;;;;5028894;28;20446;-76
2022/03/18 05:31:53;;;;;;;53.90;20.52;;;;;;;;;;5028224;28;20255;-77
2022/03/18 05:34:19;;;;;;;46.92;20.92;;;;;;;;;;5026273;28;20030;-76
2022/03/18 05:36:46;;;;;;;59.47;20.75;;;;;;;;;;5028266;28;20037;-77
2022/03/18 05:39:12;;;;;;;59.88;24.95;;;;;;;;;;5027299;28;20029;-77
2022/03/18 05:41:38;;;;;;;42.70;19.30;;;;;;;;;;5028814;28;20060;-77
2022/03/18 05:44:05;;;;;;;49.65;21.90;;;;;;;;;;5027774;28;20049;-76
2022/03/18 05:46:31;;;;;;;47.60;20.90;;;;;;;;;;5028069;28;20025;-76
2022/03/18 05:48:57;;;;;;;55.90;21.40;;;;;;;;;;5027979;28;20068;-76
2022/03/18 05:51:24;;;;;;;54.53;22.10;;;;;;;;;;5027635;28;20044;-78
2022/03/18 05:53:50;;;;;;;47.53;20.23;;;;;;;;;;5027574;28;20017;-77
2022/03/18 05:59:01;;;;;;;50.95;22.88;;;;;;;;;;5027503;28;20052;-77
2022/03/18 06:01:27;;;;;;;45.25;21.17;;;;;;;;;;5028024;28;20072;-76
2022/03/18 06:03:53;;;;;;;48.38;21.20;;;;;;;;;;5027620;28;20022;-76
2022/03/18 06:06:19;;;;;;;61.40;23.50;;;;;;;;;;5028817;28;20044;-75
2022/03/18 06:11:49;;;;;;;46.38;21.10;;;;;;;;;;5034764;28;20041;-76
2022/03/18 06:14:20;;;;;;;53.22;22.65;;;;;;;;;;5032646;28;20033;-76
2022/03/18 06:16:47;;;;;;;40.58;18.02;;;;;;;;;;5031865;28;20034;-76
2022/03/18 06:19:13;;;;;;;55.20;23.13;;;;;;;;;;5036269;28;20102;-75
2022/03/18 06:21:41;;;;;;;60.67;25.38;;;;;;;;;;5034443;28;20057;-77
2022/03/18 06:24:07;;;;;;;71.20;26.42;;;;;;;;;;5033512;28;20072;-77
2022/03/18 06:26:33;;;;;;;55.20;25.58;;;;;;;;;;5036095;28;20065;-77
2022/03/18 06:29:00;;;;;;;59.08;25.02;;;;;;;;;;5036127;28;20037;-75
2022/03/18 06:31:26;;;;;;;63.40;25.23;;;;;;;;;;5027856;28;20542;-75
2022/03/18 06:33:52;;;;;;;64.60;25.00;;;;;;;;;;5027687;28;20037;-77
2022/03/18 06:36:18;;;;;;;51.22;23.63;;;;;;;;;;5027608;28;20113;-77
2022/03/18 06:38:44;;;;;;;48.60;21.90;;;;;;;;;;5028397;28;20049;-74
2022/03/18 06:41:10;;;;;;;54.13;18.83;;;;;;;;;;5026542;28;20049;-78
2022/03/18 06:43:36;;;;;;;42.17;18.65;;;;;;;;;;5027761;28;20472;-76
2022/03/18 06:46:03;;;;;;;46.33;16.30;;;;;;;;;;5027486;28;20029;-77
2022/03/18 06:48:29;;;;;;;34.30;15.00;;;;;;;;;;5027762;28;20048;-77
2022/03/18 06:50:55;;;;;;;33.78;14.60;;;;;;;;;;5028383;28;20033;-77
2022/03/18 06:53:21;;;;;;;27.35;13.15;;;;;;;;;;5027781;28;20029;-76
2022/03/18 06:55:47;;;;;;;32.85;14.73;;;;;;;;;;5026367;28;20176;-77
2022/03/18 06:58:13;;;;;;;25.33;12.20;;;;;;;;;;5028701;28;20021;-76
2022/03/18 07:00:39;;;;;;;25.45;12.13;;;;;;;;;;5025910;28;20053;-75
2022/03/18 07:03:06;;;;;;;23.08;10.85;;;;;;;;;;5028015;28;20261;-77
2022/03/18 07:05:32;;;;;;;22.27;11.32;;;;;;;;;;5027602;28;20044;-76
2022/03/18 07:08:00;;;;;;;32.42;11.88;;;;;;;;;;5025768;28;20048;-77
2022/03/18 07:10:26;;;;;;;36.13;14.27;;;;;;;;;;5027021;28;20044;-76
2022/03/18 07:12:52;;;;;;;35.10;18.08;;;;;;;;;;5026265;28;20032;-77
2022/03/18 07:15:18;;;;;;;35.05;17.30;;;;;;;;;;5025570;28;20113;-75
2022/03/18 07:18:00;;;;;;;45.20;20.77;;;;;;;;;;5030334;28;20032;-76
2022/03/18 07:20:26;;;;;;;31.17;15.50;;;;;;;;;;5032549;28;20059;-77
2022/03/18 07:23:01;;;;;;;35.03;15.55;;;;;;;;;;5032338;28;20060;-76
2022/03/18 07:25:27;;;;;;;30.23;16.63;;;;;;;;;;5032050;28;20117;-76
2022/03/18 07:27:54;;;;;;;32.15;17.60;;;;;;;;;;5029925;28;20499;-76
2022/03/18 07:30:20;;;;;;;32.08;16.50;;;;;;;;;;5032269;28;20033;-76
2022/03/18 07:32:46;;;;;;;32.70;16.63;;;;;;;;;;5030575;28;20022;-77
2022/03/18 07:35:14;;;;;;;39.20;16.40;;;;;;;;;;5029681;28;20092;-76
2022/03/18 07:37:40;;;;;;;34.55;16.52;;;;;;;;;;5029535;28;20120;-76
2022/03/18 07:40:08;;;;;;;40.20;16.35;;;;;;;;;;5031072;28;20053;-76
2022/03/18 07:42:41;;;;;;;29.65;15.55;;;;;;;;;;5029866;28;20049;-75
2022/03/18 07:45:08;;;;;;;30.83;15.85;;;;;;;;;;5031050;28;20026;-76
2022/03/18 07:47:34;;;;;;;32.08;16.42;;;;;;;;;;5029526;28;20037;-76
2022/03/18 07:50:00;;;;;;;35.75;16.35;;;;;;;;;;5031873;28;20124;-76
2022/03/18 07:52:26;;;;;;;35.17;17.23;;;;;;;;;;5029565;28;20059;-77
2022/03/18 07:54:52;;;;;;;26.23;15.25;;;;;;;;;;5030109;28;20530;-75
2022/03/18 07:57:18;;;;;;;32.65;17.70;;;;;;;;;;5031112;28;20041;-77
2022/03/18 07:59:44;;;;;;;27.48;14.32;;;;;;;;;;5030234;28;20042;-70
2022/03/18 08:02:10;;;;;;;30.45;14.20;;;;;;;;;;5028840;28;20103;-69
2022/03/18 08:04:36;;;;;;;23.05;12.90;;;;;;;;;;5031466;28;20108;-68
2022/03/18 08:07:03;;;;;;;22.85;12.20;;;;;;;;;;5031018;28;20095;-69
2022/03/18 08:09:29;;;;;;;25.17;12.27;;;;;;;;;;5031259;28;20122;-68
2022/03/18 08:11:56;;;;;;;22.83;11.38;;;;;;;;;;5031042;28;20033;-69
2022/03/18 08:14:22;;;;;;;18.20;10.82;;;;;;;;;;5031557;28;20060;-68
2022/03/18 08:16:48;;;;;;;24.17;10.70;;;;;;;;;;5029939;28;20037;-69
2022/03/18 08:19:14;;;;;;;19.42;10.13;;;;;;;;;;5030834;28;20022;-70
2022/03/18 08:21:40;;;;;;;19.60;9.30;;;;;;;;;;5030879;28;20522;-67
2022/03/18 08:24:07;;;;;;;18.83;9.23;;;;;;;;;;5030337;28;20038;-70
2022/03/18 08:26:37;;;;;;;27.52;9.55;;;;;;;;;;5011274;28;20053;-70
2022/03/18 08:29:04;;;;;;;18.38;8.63;;;;;;;;;;5024364;28;20043;-69
2022/03/18 08:31:30;;;;;;;16.67;8.93;;;;;;;;;;5025922;28;20033;-68
2022/03/18 08:33:56;;;;;;;14.55;7.20;;;;;;;;;;5030365;28;20057;-69
2022/03/18 08:36:23;;;;;;;17.17;6.80;;;;;;;;;;5030190;28;20053;-70
2022/03/18 08:38:49;;;;;;;24.63;7.68;;;;;;;;;;5028928;28;20052;-69
2022/03/18 08:41:15;;;;;;;13.90;6.68;;;;;;;;;;5030353;28;20120;-69
2022/03/18 08:43:41;;;;;;;14.02;7.05;;;;;;;;;;5028673;28;20188;-69
2022/03/18 08:46:07;;;;;;;17.23;6.40;;;;;;;;;;5030407;28;20368;-69
2022/03/18 08:48:33;;;;;;;15.80;6.75;;;;;;;;;;5028389;28;20029;-69
2022/03/18 08:50:59;;;;;;;19.30;7.38;;;;;;;;;;5030453;28;20029;-69
2022/03/18 08:53:27;;;;;;;18.63;6.28;;;;;;;;;;5030586;28;20077;-69
2022/03/18 08:55:56;;;;;;;20.08;5.18;;;;;;;;;;5029617;28;20059;-70
2022/03/18 08:58:22;;;;;;;15.65;5.95;;;;;;;;;;5030380;28;20056;-70
2022/03/18 09:00:48;;;;;;;18.70;5.85;;;;;;;;;;5029707;28;20045;-69
2022/03/18 09:03:14;;;;;;;16.75;6.20;;;;;;;;;;5029921;28;20028;-70
2022/03/18 09:05:42;;;;;;;14.80;6.82;;;;;;;;;;5030688;28;20068;-70
2022/03/18 09:08:08;;;;;;;17.50;6.32;;;;;;;;;;5029942;28;20017;-70
2022/03/18 09:10:34;;;;;;;14.73;6.72;;;;;;;;;;5025083;28;20032;-68
2022/03/18 09:13:00;;;;;;;18.05;6.45;;;;;;;;;;5028794;28;20037;-70
2022/03/18 09:15:27;;;;;;;17.92;6.93;;;;;;;;;;5029481;28;20116;-69
2022/03/18 09:17:53;;;;;;;17.23;7.30;;;;;;;;;;5026645;28;20375;-70
2022/03/18 09:20:19;;;;;;;19.88;6.68;;;;;;;;;;5029064;28;20045;-70
2022/03/18 09:22:47;;;;;;;16.90;7.35;;;;;;;;;;5029324;28;20092;-70
2022/03/18 09:25:14;;;;;;;19.95;7.30;;;;;;;;;;5028454;28;20053;-68
2022/03/18 09:27:41;;;;;;;23.65;8.10;;;;;;;;;;5028714;28;20033;-68
2022/03/18 09:30:08;;;;;;;18.65;8.73;;;;;;;;;;5025843;28;20467;-69
2022/03/18 09:32:35;;;;;;;18.17;7.65;;;;;;;;;;5017720;28;20084;-70
2022/03/18 09:35:01;;;;;;;20.40;7.20;;;;;;;;;;5023846;28;20068;-70
2022/03/18 09:37:28;;;;;;;14.02;7.03;;;;;;;;;;5025199;28;20041;-70
2022/03/18 09:39:54;;;;;;;18.42;7.15;;;;;;;;;;5027932;28;20056;-70
2022/03/18 09:42:20;;;;;;;23.08;8.25;;;;;;;;;;5025044;28;20025;-68
2022/03/18 09:44:46;;;;;;;21.67;7.38;;;;;;;;;;5025455;28;20037;-72
2022/03/18 09:47:13;;;;;;;16.70;7.13;;;;;;;;;;5025175;28;20491;-69
2022/03/18 09:49:39;;;;;;;17.88;7.72;;;;;;;;;;5025266;28;20029;-70
2022/03/18 09:52:05;;;;;;;20.52;7.60;;;;;;;;;;5028044;28;20045;-70
2022/03/18 09:54:34;;;;;;;22.10;7.70;;;;;;;;;;5022318;28;20030;-69
2022/03/18 09:57:01;;;;;;;15.40;7.03;;;;;;;;;;5025085;28;20022;-69
2022/03/18 09:59:27;;;;;;;21.55;7.95;;;;;;;;;;5026681;28;20063;-71
2022/03/18 10:02:28;;;;;;;16.73;7.07;;;;;;;;;;5025957;28;20065;-70
2022/03/18 10:04:59;;;;;;;18.67;7.70;;;;;;;;;;5021615;28;20030;-71
2022/03/18 10:07:26;;;;;;;16.90;7.13;;;;;;;;;;5021635;28;20063;-71
2022/03/18 10:10:15;;;;;;;15.25;5.88;;;;;;;;;;5025618;28;20128;-69
2022/03/18 10:12:41;;;;;;;14.05;6.18;;;;;;;;;;5027503;28;20096;-71
2022/03/18 10:15:18;;;;;;;19.50;6.10;;;;;;;;;;5025405;28;20032;-70
2022/03/18 10:17:54;;;;;;;19.33;7.07;;;;;;;;;;5027450;28;20454;-71
2022/03/18 10:20:33;;;;;;;12.23;5.10;;;;;;;;;;5027066;28;20029;-70
2022/03/18 10:23:20;;;;;;;13.15;5.57;;;;;;;;;;5021607;28;20037;-70
2022/03/18 10:25:53;;;;;;;17.30;4.82;;;;;;;;;;5023599;28;20075;-71
2022/03/18 10:28:37;;;;;;;13.98;5.07;;;;;;;;;;5026651;28;20128;-70
2022/03/18 10:31:19;;;;;;;12.10;5.63;;;;;;;;;;5025673;28;20045;-71
2022/03/18 10:39:23;;;;;;;15.85;6.10;;;;;;;;;;5026089;28;20091;-71
2022/03/18 10:41:49;;;;;;;15.25;5.72;;;;;;;;;;5023673;28;20052;-71
2022/03/18 10:44:18;;;;;;;16.08;6.05;;;;;;;;;;5026251;28;20029;-70
2022/03/18 10:46:44;;;;;;;16.42;6.10;;;;;;;;;;5025467;28;20343;-70
2022/03/18 10:49:11;;;;;;;16.65;5.50;;;;;;;;;;5025082;28;20502;-71
2022/03/18 10:51:38;;;;;;;17.23;5.97;;;;;;;;;;5023754;28;20481;-71
2022/03/18 10:54:05;;;;;;;15.27;5.28;;;;;;;;;;5031763;28;20036;-71
2022/03/18 10:56:51;;;;;;;12.25;5.07;;;;;;;;;;5032566;28;20025;-70
2022/03/18 10:59:17;;;;;;;20.02;5.03;;;;;;;;;;5032042;28;20029;-70
2022/03/18 11:01:46;;;;;;;12.80;5.43;;;;;;;;;;5031269;28;20030;-70
2022/03/18 11:04:12;;;;;;;19.40;5.68;;;;;;;;;;5031052;28;20107;-71
2022/03/18 11:06:38;;;;;;;13.50;5.68;;;;;;;;;;5028082;28;20084;-70
2022/03/18 11:09:04;;;;;;;13.55;5.55;;;;;;;;;;5031546;28;20025;-70
2022/03/18 11:11:31;;;;;;;15.43;6.05;;;;;;;;;;5030392;28;20560;-70
2022/03/18 11:14:02;;;;;;;17.65;6.40;;;;;;;;;;5031327;28;20029;-70
2022/03/18 11:16:29;;;;;;;14.35;5.93;;;;;;;;;;5030833;28;20542;-70
2022/03/18 11:18:57;;;;;;;16.02;6.00;;;;;;;;;;5012606;28;20080;-70
2022/03/18 11:21:35;;;;;;;18.88;6.28;;;;;;;;;;5026315;28;20050;-71
2022/03/18 11:24:03;;;;;;;16.33;6.65;;;;;;;;;;5031808;28;20083;-70
2022/03/18 11:26:29;;;;;;;14.75;6.63;;;;;;;;;;5029645;28;20037;-70
2022/03/18 11:29:26;;;;;;;16.35;7.07;;;;;;;;;;5023592;28;20124;-70
2022/03/18 11:32:10;;;;;;;17.92;6.90;;;;;;;;;;5026357;28;20044;-70
2022/03/18 11:34:56;;;;;;;14.63;5.85;;;;;;;;;;5028026;28;20486;-70
2022/03/18 11:37:25;;;;;;;16.48;5.93;;;;;;;;;;5031469;28;20047;-70
2022/03/18 11:39:52;;;;;;;14.63;5.88;;;;;;;;;;5023043;28;20021;-70
2022/03/18 11:42:20;;;;;;;16.48;5.95;;;;;;;;;;5028601;28;20120;-71
2022/03/18 11:45:06;;;;;;;15.32;6.03;;;;;;;;;;5029198;28;20073;-72
2022/03/18 11:47:32;;;;;;;13.88;6.05;;;;;;;;;;5029644;28;20029;-70
2022/03/18 11:49:59;;;;;;;13.52;6.47;;;;;;;;;;5030274;28;20040;-71
2022/03/18 11:52:25;;;;;;;16.63;5.43;;;;;;;;;;5030502;28;20109;-71
2022/03/18 11:55:01;;;;;;;15.07;5.38;;;;;;;;;;5025157;28;20037;-72
2022/03/18 11:57:33;;;;;;;15.93;5.43;;;;;;;;;;5030489;28;20037;-70
2022/03/18 12:00:00;;;;;;;17.50;5.63;;;;;;;;;;5026785;28;20353;-70
2022/03/18 12:02:33;;;;;;;13.95;5.18;;;;;;;;;;5029230;28;20018;-70
2022/03/18 12:04:59;;;;;;;16.98;5.40;;;;;;;;;;5030898;28;20065;-70
2022/03/18 12:07:34;;;;;;;11.55;5.53;;;;;;;;;;5026919;28;20040;-69
2022/03/18 12:10:06;;;;;;;10.82;4.65;;;;;;;;;;5029660;28;20129;-69
2022/03/18 12:12:32;;;;;;;9.00;4.55;;;;;;;;;;5029555;28;20032;-70
2022/03/18 12:15:02;;;;;;;38.75;6.97;;;;;;;;;;5030403;28;20035;-70
2022/03/18 12:17:28;;;;;;;11.00;3.58;;;;;;;;;;5029885;28;20091;-71
2022/03/18 12:19:55;;;;;;;13.05;4.85;;;;;;;;;;5028120;28;20497;-70
2022/03/18 12:22:22;;;;;;;7.30;3.20;;;;;;;;;;5029662;28;20046;-69
2022/03/18 12:24:49;;;;;;;10.50;3.60;;;;;;;;;;5028629;28;20045;-70
2022/03/18 12:27:29;;;;;;;11.05;4.15;;;;;;;;;;5030291;28;20025;-69
2022/03/18 12:29:59;;;;;;;6.78;3.17;;;;;;;;;;5028685;28;20037;-70
2022/03/18 12:32:25;;;;;;;9.70;3.63;;;;;;;;;;5030785;28;20044;-70
2022/03/18 12:34:52;;;;;;;5.55;2.50;;;;;;;;;;5031028;28;20499;-69
2022/03/18 12:37:22;;;;;;;9.30;2.92;;;;;;;;;;5028886;28;20044;-68
2022/03/18 12:40:01;;;;;;;7.38;2.65;;;;;;;;;;5026132;28;20470;-69
2022/03/18 12:42:27;;;;;;;8.90;2.92;;;;;;;;;;5026918;28;20017;-70
2022/03/18 12:44:58;;;;;;;9.35;2.90;;;;;;;;;;5030517;28;20041;-70
2022/03/18 12:47:26;;;;;;;10.27;3.08;;;;;;;;;;5030412;28;20044;-69
2022/03/18 12:49:52;;;;;;;5.95;2.20;;;;;;;;;;5028699;28;20037;-71
2022/03/18 12:52:19;;;;;;;12.27;2.38;;;;;;;;;;5029573;28;20029;-69
2022/03/18 12:55:05;;;;;;;8.48;3.08;;;;;;;;;;5024067;28;20103;-70
2022/03/18 12:57:39;;;;;;;8.43;2.97;;;;;;;;;;5027995;28;20072;-70
2022/03/18 13:00:08;;;;;;;8.70;2.60;;;;;;;;;;5030621;28;20120;-70
2022/03/18 13:02:37;;;;;;;11.68;2.90;;;;;;;;;;5030768;28;20553;-70
2022/03/18 13:05:06;;;;;;;8.43;2.08;;;;;;;;;;5030415;28;20047;-70
2022/03/18 13:07:32;;;;;;;6.82;2.30;;;;;;;;;;5030901;28;20064;-71
2022/03/18 13:10:00;;;;;;;8.38;2.70;;;;;;;;;;5029658;28;20772;-69
2022/03/18 13:12:27;;;;;;;8.57;2.60;;;;;;;;;;5028753;28;20026;-70
2022/03/18 13:14:56;;;;;;;9.10;2.83;;;;;;;;;;5028330;28;20037;-70
2022/03/18 13:17:22;;;;;;;8.02;2.35;;;;;;;;;;5023224;28;20038;-70
2022/03/18 13:19:50;;;;;;;8.07;2.15;;;;;;;;;;5028104;28;20029;-71
2022/03/18 13:22:24;;;;;;;7.80;2.30;;;;;;;;;;5026408;28;20631;-69
2022/03/18 13:24:52;;;;;;;7.85;2.30;;;;;;;;;;5027454;28;20029;-71
2022/03/18 13:27:20;;;;;;;9.27;2.50;;;;;;;;;;5028839;28;20087;-72
2022/03/18 13:32:50;;;;;;;9.98;3.10;;;;;;;;;;5028368;28;20117;-71
2022/03/18 13:35:17;;;;;;;12.23;3.45;;;;;;;;;;5027653;28;20030;-70
2022/03/18 13:37:43;;;;;;;11.63;3.85;;;;;;;;;;5023036;28;20090;-70
2022/03/18 13:40:11;;;;;;;19.33;2.80;;;;;;;;;;5026734;28;20029;-69
2022/03/18 13:42:37;;;;;;;11.93;2.47;;;;;;;;;;5028347;28;20029;-70
2022/03/18 13:45:03;;;;;;;13.57;2.65;;;;;;;;;;5029235;28;20064;-71
2022/03/18 13:47:29;;;;;;;12.05;3.28;;;;;;;;;;5028957;28;20056;-71
2022/03/18 13:49:56;;;;;;;8.57;2.90;;;;;;;;;;5028923;28;20033;-71
2022/03/18 13:52:33;;;;;;;4.93;2.35;;;;;;;;;;5027750;28;20029;-70
2022/03/18 13:55:00;;;;;;;12.95;3.28;;;;;;;;;;5028478;28;20041;-71
2022/03/18 13:57:26;;;;;;;15.07;3.50;;;;;;;;;;5028316;28;20041;-71
2022/03/18 13:59:54;;;;;;;15.23;3.70;;;;;;;;;;5029110;28;20079;-72
2022/03/18 14:02:40;;;;;;;12.65;3.80;;;;;;;;;;5029026;28;20026;-71
2022/03/18 14:05:06;;;;;;;12.13;4.10;;;;;;;;;;5027797;28;20025;-70
2022/03/18 14:07:44;;;;;;;11.60;4.70;;;;;;;;;;5028823;28;20136;-70
2022/03/18 14:10:10;;;;;;;12.23;4.18;;;;;;;;;;5028579;28;20516;-70
2022/03/18 14:12:36;;;;;;;11.20;4.35;;;;;;;;;;5029635;28;20068;-70
2022/03/18 14:15:18;;;;;;;10.10;4.10;;;;;;;;;;5026678;28;20037;-71
2022/03/18 14:18:03;;;;;;;15.68;4.22;;;;;;;;;;5028713;28;20118;-71
2022/03/18 14:20:30;;;;;;;10.98;4.25;;;;;;;;;;5028193;28;20491;-70
2022/03/18 14:22:57;;;;;;;14.13;4.63;;;;;;;;;;5027112;28;20115;-70
2022/03/18 14:25:23;;;;;;;11.60;4.55;;;;;;;;;;5025674;28;20040;-71
2022/03/18 14:27:52;;;;;;;12.82;4.15;;;;;;;;;;5027445;28;20040;-70
2022/03/18 14:30:24;;;;;;;11.55;4.45;;;;;;;;;;5024922;28;20491;-72
2022/03/18 14:32:51;;;;;;;8.68;4.47;;;;;;;;;;5028346;28;20030;-71
2022/03/18 14:35:17;;;;;;;12.27;4.65;;;;;;;;;;5027225;28;20021;-71
2022/03/18 14:37:43;;;;;;;15.07;4.47;;;;;;;;;;5025078;28;20060;-70
2022/03/18 14:40:11;;;;;;;14.65;4.90;;;;;;;;;;5027396;28;20463;-70
2022/03/18 14:42:38;;;;;;;10.38;4.65;;;;;;;;;;5026641;28;20021;-70
2022/03/18 14:45:04;;;;;;;13.13;4.70;;;;;;;;;;5027001;28;20087;-71
2022/03/18 14:47:30;;;;;;;16.13;4.07;;;;;;;;;;5025777;28;20040;-70
2022/03/18 14:49:56;;;;;;;9.52;4.57;;;;;;;;;;5025482;28;20486;-69
2022/03/18 14:52:22;;;;;;;10.50;4.13;;;;;;;;;;5024707;28;20099;-70